La rose des vents
Donnes mto: Semaine 16/04/07 - 22/04/07 (S 16)
Date Horaire Temp. E. Hum. E. P.atmo. Pluie Vent 1mn Direction Ensoleilleme Ev.Tr. Solaire P. de rose Temp au vent Rafales
16/04/2007 00:00 16,2 C 51 % 1016,6 hPa 0,0 l/m 5,7 km/h (1 Bft) O-NO 0,00 h 0,076 mm 0 W/m 6,2 C 16,2 C 9,4 km/h (2 Bft)
16/04/2007 01:00 16,1 C 51 % 1016,7 hPa 0,0 l/m 7,4 km/h (2 Bft) O-NO 0,00 h 0,076 mm 0 W/m 6,0 C 16,1 C 11,2 km/h (2 Bft)
16/04/2007 02:00 16,3 C 50 % 1016,2 hPa 0,0 l/m 10,2 km/h (2 Bft) O-NO 0,00 h 0,076 mm 0 W/m 5,9 C 16,3 C 14,7 km/h (3 Bft)
16/04/2007 03:00 16,1 C 48 % 1015,9 hPa 0,0 l/m 5,6 km/h (1 Bft) NO 0,00 h 0,102 mm 0 W/m 5,1 C 16,1 C 8,0 km/h (2 Bft)
16/04/2007 04:00 15,0 C 51 % 1016,0 hPa 0,0 l/m 3,9 km/h (1 Bft) O-NO 0,00 h 0,076 mm 0 W/m 4,9 C 15,0 C 5,6 km/h (1 Bft)
16/04/2007 05:00 14,9 C 50 % 1016,0 hPa 0,0 l/m 4,5 km/h (1 Bft) NO 0,00 h 0,051 mm 0 W/m 4,6 C 14,9 C 6,8 km/h (2 Bft)
16/04/2007 06:00 14,5 C 51 % 1015,9 hPa 0,0 l/m 3,7 km/h (1 Bft) O-NO 0,03 h 0,051 mm 8 W/m 4,5 C 14,5 C 6,2 km/h (2 Bft)
16/04/2007 07:00 14,6 C 51 % 1016,2 hPa 0,0 l/m 4,3 km/h (1 Bft) O-NO 0,10 h 0,025 mm 41 W/m 4,6 C 14,6 C 6,7 km/h (2 Bft)
16/04/2007 08:00 17,2 C 48 % 1016,4 hPa 0,0 l/m 1,6 km/h (1 Bft) O-NO 0,30 h 0,051 mm 148 W/m 6,0 C 17,2 C 3,1 km/h (1 Bft)
16/04/2007 09:00 20,6 C 41 % 1016,6 hPa 0,0 l/m 0,2 km/h (0 Bft) E-NE 1,00 h 0,102 mm 414 W/m 6,9 C 20,6 C 1,0 km/h (0 Bft)
16/04/2007 10:00 23,0 C 36 % 1016,5 hPa 0,0 l/m 2,1 km/h (1 Bft) E-SE 1,00 h 0,254 mm 582 W/m 7,2 C 23,0 C 4,2 km/h (1 Bft)
16/04/2007 11:00 24,5 C 28 % 1016,6 hPa 0,0 l/m 4,8 km/h (1 Bft) E 1,00 h 0,381 mm 596 W/m 4,8 C 24,5 C 8,0 km/h (2 Bft)
16/04/2007 12:00 25,2 C 24 % 1016,3 hPa 0,0 l/m 7,0 km/h (2 Bft) E 1,00 h 0,432 mm 785 W/m 3,4 C 25,2 C 12,0 km/h (2 Bft)
16/04/2007 13:00 25,8 C 25 % 1015,7 hPa 0,0 l/m 9,0 km/h (2 Bft) E 0,97 h 0,584 mm 811 W/m 4,2 C 25,8 C 14,6 km/h (3 Bft)
16/04/2007 14:00 25,5 C 26 % 1015,5 hPa 0,0 l/m 6,5 km/h (2 Bft) E 0,87 h 0,610 mm 678 W/m 4,4 C 25,5 C 10,9 km/h (2 Bft)
16/04/2007 15:00 25,1 C 25 % 1015,2 hPa 0,0 l/m 9,0 km/h (2 Bft) S-SE 1,00 h 0,508 mm 699 W/m 3,8 C 25,1 C 13,8 km/h (3 Bft)
16/04/2007 16:00 24,9 C 25 % 1014,9 hPa 0,0 l/m 6,7 km/h (2 Bft) SE 0,95 h 0,559 mm 564 W/m 3,7 C 24,9 C 10,7 km/h (2 Bft)
16/04/2007 17:00 25,0 C 25 % 1014,6 hPa 0,0 l/m 5,0 km/h (1 Bft) S 0,90 h 0,432 mm 415 W/m 3,6 C 25,0 C 7,9 km/h (2 Bft)
16/04/2007 18:00 24,8 C 26 % 1014,4 hPa 0,0 l/m 3,0 km/h (1 Bft) S-SE 1,00 h 0,330 mm 243 W/m 3,9 C 24,8 C 5,0 km/h (1 Bft)
16/04/2007 19:00 23,2 C 29 % 1014,3 hPa 0,0 l/m 4,3 km/h (1 Bft) O-SO 0,35 h 0,203 mm 62 W/m 4,1 C 23,2 C 6,2 km/h (2 Bft)
16/04/2007 20:00 20,7 C 31 % 1014,6 hPa 0,0 l/m 4,2 km/h (1 Bft) O-NO 0,00 h 0,102 mm 6 W/m 3,1 C 20,7 C 6,7 km/h (2 Bft)
16/04/2007 21:00 20,2 C 32 % 1014,9 hPa 0,0 l/m 8,9 km/h (2 Bft) O-NO 0,00 h 0,051 mm 0 W/m 2,8 C 20,2 C 12,4 km/h (3 Bft)
16/04/2007 22:00 19,0 C 36 % 1015,3 hPa 0,0 l/m 7,2 km/h (2 Bft) NO 0,00 h 0,127 mm 0 W/m 3,5 C 19,0 C 9,9 km/h (2 Bft)
16/04/2007 23:00 18,6 C 38 % 1015,3 hPa 0,0 l/m 1,8 km/h (1 Bft) N 0,00 h 0,102 mm 0 W/m 4,2 C 18,6 C 3,6 km/h (1 Bft)
17/04/2007 00:00 18,4 C 39 % 1015,1 hPa 0,0 l/m 2,8 km/h (1 Bft) NO 0,00 h 0,076 mm 0 W/m 4,2 C 18,4 C 4,1 km/h (1 Bft)
17/04/2007 01:00 17,7 C 43 % 1015,0 hPa 0,0 l/m 3,2 km/h (1 Bft) NO 0,00 h 0,076 mm 0 W/m 4,8 C 17,7 C 5,6 km/h (1 Bft)
17/04/2007 02:00 17,9 C 43 % 1014,8 hPa 0,0 l/m 3,5 km/h (1 Bft) NO 0,00 h 0,076 mm 0 W/m 5,3 C 17,9 C 5,1 km/h (1 Bft)
17/04/2007 03:00 16,7 C 48 % 1014,8 hPa 0,0 l/m 3,7 km/h (1 Bft) NO 0,00 h 0,076 mm 0 W/m 5,6 C 16,7 C 5,4 km/h (1 Bft)
17/04/2007 04:00 16,7 C 48 % 1014,9 hPa 0,0 l/m 3,2 km/h (1 Bft) NO 0,00 h 0,076 mm 0 W/m 5,8 C 16,7 C 5,3 km/h (1 Bft)
17/04/2007 05:00 14,9 C 54 % 1015,4 hPa 0,0 l/m 3,1 km/h (1 Bft) N 0,00 h 0,051 mm 0 W/m 5,7 C 14,9 C 5,8 km/h (2 Bft)
17/04/2007 06:00 15,1 C 53 % 1015,5 hPa 0,0 l/m 2,8 km/h (1 Bft) N 0,00 h 0,051 mm 7 W/m 5,7 C 15,1 C 5,6 km/h (1 Bft)
17/04/2007 07:00 16,1 C 50 % 1015,9 hPa 0,0 l/m 1,6 km/h (1 Bft) N-NE 0,08 h 0,025 mm 49 W/m 5,6 C 16,1 C 3,9 km/h (1 Bft)
17/04/2007 08:00 18,0 C 48 % 1016,1 hPa 0,0 l/m 1,8 km/h (1 Bft) O-NO 0,33 h 0,051 mm 160 W/m 6,8 C 18,0 C 3,6 km/h (1 Bft)
17/04/2007 09:00 20,9 C 41 % 1016,4 hPa 0,0 l/m 3,1 km/h (1 Bft) E 1,00 h 0,102 mm 387 W/m 7,2 C 20,9 C 5,2 km/h (1 Bft)
17/04/2007 10:00 22,1 C 37 % 1016,6 hPa 0,0 l/m 5,4 km/h (1 Bft) NE 1,00 h 0,254 mm 548 W/m 6,6 C 22,1 C 8,6 km/h (2 Bft)
17/04/2007 11:00 22,7 C 34 % 1016,6 hPa 0,0 l/m 5,5 km/h (1 Bft) E-SE 1,00 h 0,381 mm 675 W/m 6,1 C 22,7 C 9,4 km/h (2 Bft)
17/04/2007 12:00 23,0 C 34 % 1016,4 hPa 0,0 l/m 7,4 km/h (2 Bft) E 1,00 h 0,457 mm 759 W/m 6,4 C 23,0 C 11,6 km/h (2 Bft)
17/04/2007 13:00 23,4 C 37 % 1015,9 hPa 0,0 l/m 10,3 km/h (2 Bft) E 1,00 h 0,533 mm 783 W/m 7,7 C 23,4 C 15,3 km/h (3 Bft)
17/04/2007 14:00 22,9 C 39 % 1015,8 hPa 0,0 l/m 9,4 km/h (2 Bft) E 1,00 h 0,584 mm 756 W/m 8,2 C 22,9 C 14,4 km/h (3 Bft)
17/04/2007 15:00 23,2 C 35 % 1015,4 hPa 0,0 l/m 8,9 km/h (2 Bft) E 1,00 h 0,559 mm 677 W/m 6,7 C 23,2 C 13,8 km/h (3 Bft)
17/04/2007 16:00 22,8 C 35 % 1015,0 hPa 0,0 l/m 7,1 km/h (2 Bft) E 1,00 h 0,508 mm 553 W/m 6,7 C 22,8 C 10,7 km/h (2 Bft)
17/04/2007 17:00 22,4 C 34 % 1014,8 hPa 0,0 l/m 3,5 km/h (1 Bft) SE 1,00 h 0,406 mm 394 W/m 5,7 C 22,4 C 6,2 km/h (2 Bft)
17/04/2007 18:00 21,1 C 39 % 1014,8 hPa 0,0 l/m 2,0 km/h (1 Bft) E-SE 1,00 h 0,279 mm 225 W/m 6,5 C 21,1 C 4,0 km/h (1 Bft)
17/04/2007 19:00 19,2 C 48 % 1014,8 hPa 0,0 l/m 0,1 km/h (0 Bft) E-SE 0,45 h 0,152 mm 70 W/m 7,9 C 19,2 C 0,6 km/h (0 Bft)
17/04/2007 20:00 17,0 C 55 % 1015,0 hPa 0,0 l/m 0,2 km/h (0 Bft) E-SE 0,05 h 0,051 mm 9 W/m 8,0 C 17,0 C 0,4 km/h (0 Bft)
17/04/2007 21:00 16,6 C 54 % 1015,4 hPa 0,0 l/m 1,4 km/h (1 Bft) E-SE 0,00 h 0,000 mm 0 W/m 7,2 C 16,6 C 2,5 km/h (1 Bft)
17/04/2007 22:00 16,1 C 52 % 1015,5 hPa 0,0 l/m 2,6 km/h (1 Bft) O-NO 0,00 h 0,051 mm 0 W/m 6,2 C 16,1 C 3,7 km/h (1 Bft)
17/04/2007 23:00 16,1 C 50 % 1015,4 hPa 0,0 l/m 0,3 km/h (0 Bft) O-NO 0,00 h 0,051 mm 0 W/m 5,7 C 16,1 C 1,1 km/h (1 Bft)
18/04/2007 00:00 16,0 C 49 % 1015,2 hPa 0,0 l/m 3,0 km/h (1 Bft) NO 0,00 h 0,051 mm 0 W/m 5,3 C 16,0 C 4,5 km/h (1 Bft)
18/04/2007 01:00 15,6 C 53 % 1015,0 hPa 0,0 l/m 4,9 km/h (1 Bft) O 0,00 h 0,051 mm 0 W/m 6,0 C 15,6 C 6,7 km/h (2 Bft)
18/04/2007 02:00 14,5 C 58 % 1014,9 hPa 0,0 l/m 1,7 km/h (1 Bft) NO 0,00 h 0,051 mm 0 W/m 6,4 C 14,5 C 3,4 km/h (1 Bft)
18/04/2007 03:00 14,4 C 58 % 1014,6 hPa 0,0 l/m 0,9 km/h (0 Bft) NO 0,00 h 0,051 mm 0 W/m 6,2 C 14,4 C 2,1 km/h (1 Bft)
18/04/2007 04:00 14,1 C 59 % 1014,6 hPa 0,0 l/m 2,0 km/h (1 Bft) N-NE 0,00 h 0,051 mm 0 W/m 6,2 C 14,1 C 3,7 km/h (1 Bft)
18/04/2007 05:00 13,4 C 61 % 1014,6 hPa 0,0 l/m 1,3 km/h (1 Bft) N-NE 0,00 h 0,051 mm 0 W/m 6,1 C 13,4 C 2,7 km/h (1 Bft)
18/04/2007 06:00 14,1 C 60 % 1014,4 hPa 0,0 l/m 3,3 km/h (1 Bft) O 0,03 h 0,025 mm 8 W/m 6,5 C 14,1 C 4,6 km/h (1 Bft)
18/04/2007 07:00 14,6 C 61 % 1014,5 hPa 0,0 l/m 3,5 km/h (1 Bft) O 0,08 h 0,025 mm 50 W/m 7,3 C 14,6 C 5,3 km/h (1 Bft)
18/04/2007 08:00 15,6 C 60 % 1014,9 hPa 0,0 l/m 1,3 km/h (1 Bft) E 0,48 h 0,051 mm 161 W/m 8,0 C 15,6 C 2,9 km/h (1 Bft)
18/04/2007 09:00 18,6 C 54 % 1015,1 hPa 0,0 l/m 4,8 km/h (1 Bft) E-NE 1,00 h 0,102 mm 402 W/m 9,0 C 18,6 C 7,3 km/h (2 Bft)
18/04/2007 10:00 19,6 C 55 % 1015,1 hPa 0,0 l/m 6,2 km/h (2 Bft) E-SE 1,00 h 0,254 mm 564 W/m 10,3 C 19,6 C 9,7 km/h (2 Bft)
18/04/2007 11:00 20,4 C 50 % 1015,0 hPa 0,0 l/m 6,8 km/h (2 Bft) E-SE 1,00 h 0,381 mm 700 W/m 9,6 C 20,4 C 10,8 km/h (2 Bft)
18/04/2007 12:00 20,8 C 52 % 1015,0 hPa 0,0 l/m 7,6 km/h (2 Bft) E 1,00 h 0,457 mm 779 W/m 10,4 C 20,8 C 12,6 km/h (3 Bft)
18/04/2007 13:00 21,1 C 50 % 1014,9 hPa 0,0 l/m 8,0 km/h (2 Bft) E 1,00 h 0,508 mm 809 W/m 10,3 C 21,1 C 13,9 km/h (3 Bft)
18/04/2007 14:00 20,6 C 59 % 1015,0 hPa 0,0 l/m 7,1 km/h (2 Bft) E 1,00 h 0,533 mm 781 W/m 12,3 C 20,6 C 12,3 km/h (3 Bft)
18/04/2007 15:00 20,5 C 58 % 1014,6 hPa 0,0 l/m 6,4 km/h (2 Bft) E 1,00 h 0,508 mm 695 W/m 12,0 C 20,5 C 11,3 km/h (2 Bft)
18/04/2007 16:00 19,2 C 65 % 1014,0 hPa 0,0 l/m 4,6 km/h (1 Bft) E-SE 1,00 h 0,457 mm 577 W/m 12,4 C 19,2 C 8,8 km/h (2 Bft)
18/04/2007 17:00 18,4 C 71 % 1013,8 hPa 0,0 l/m 5,1 km/h (1 Bft) E 1,00 h 0,356 mm 413 W/m 13,0 C 18,4 C 8,0 km/h (2 Bft)
18/04/2007 18:00 17,5 C 76 % 1013,6 hPa 0,0 l/m 3,7 km/h (1 Bft) E 1,00 h 0,254 mm 235 W/m 13,3 C 17,5 C 6,0 km/h (2 Bft)
18/04/2007 19:00 15,7 C 85 % 1013,5 hPa 0,0 l/m 0,9 km/h (0 Bft) E-SE 0,70 h 0,152 mm 81 W/m 13,1 C 15,7 C 2,5 km/h (1 Bft)
18/04/2007 20:00 13,9 C 91 % 1013,6 hPa 0,0 l/m 2,6 km/h (1 Bft) E 0,05 h 0,051 mm 11 W/m 12,4 C 13,9 C 4,5 km/h (1 Bft)
18/04/2007 21:00 13,3 C 93 % 1014,2 hPa 0,0 l/m 1,2 km/h (1 Bft) E 0,00 h 0,000 mm 0 W/m 12,2 C 13,3 C 2,4 km/h (1 Bft)
18/04/2007 22:00 13,2 C 94 % 1014,4 hPa 0,0 l/m 2,2 km/h (1 Bft) E-NE 0,00 h 0,000 mm 0 W/m 12,3 C 13,2 C 3,8 km/h (1 Bft)
18/04/2007 23:00 13,5 C 94 % 1014,5 hPa 0,0 l/m 3,4 km/h (1 Bft) E 0,00 h 0,000 mm 0 W/m 12,5 C 13,5 C 5,4 km/h (1 Bft)
19/04/2007 00:00 13,5 C 94 % 1014,6 hPa 0,0 l/m 1,7 km/h (1 Bft) E 0,00 h 0,000 mm 0 W/m 12,5 C 13,5 C 3,3 km/h (1 Bft)
19/04/2007 01:00 13,3 C 93 % 1014,6 hPa 0,0 l/m 2,2 km/h (1 Bft) E 0,00 h 0,000 mm 0 W/m 12,2 C 13,3 C 4,1 km/h (1 Bft)
19/04/2007 02:00 13,6 C 92 % 1014,5 hPa 0,0 l/m 0,3 km/h (0 Bft) E-NE 0,00 h 0,000 mm 0 W/m 12,4 C 13,6 C 0,6 km/h (0 Bft)
19/04/2007 03:00 13,5 C 92 % 1014,3 hPa 0,0 l/m 0,9 km/h (0 Bft) N-NO 0,00 h 0,000 mm 0 W/m 12,3 C 13,5 C 2,3 km/h (1 Bft)
19/04/2007 04:00 13,4 C 91 % 1014,2 hPa 0,0 l/m 2,1 km/h (1 Bft) N 0,00 h 0,000 mm 0 W/m 12,0 C 13,4 C 4,6 km/h (1 Bft)
19/04/2007 05:00 13,3 C 91 % 1014,1 hPa 0,0 l/m 2,8 km/h (1 Bft) N 0,00 h 0,025 mm 0 W/m 11,8 C 13,3 C 5,5 km/h (1 Bft)
19/04/2007 06:00 13,4 C 89 % 1013,9 hPa 0,0 l/m 1,6 km/h (1 Bft) N 0,02 h 0,025 mm 9 W/m 11,7 C 13,4 C 4,0 km/h (1 Bft)
19/04/2007 07:00 13,3 C 89 % 1014,3 hPa 0,0 l/m 0,8 km/h (0 Bft) N 0,07 h 0,000 mm 51 W/m 11,5 C 13,3 C 3,0 km/h (1 Bft)
19/04/2007 08:00 15,1 C 82 % 1014,7 hPa 0,0 l/m 3,3 km/h (1 Bft) N 0,32 h 0,025 mm 150 W/m 12,0 C 15,1 C 6,5 km/h (2 Bft)
19/04/2007 09:00 16,5 C 77 % 1014,7 hPa 0,0 l/m 8,5 km/h (2 Bft) E-NE 0,28 h 0,102 mm 271 W/m 12,5 C 16,5 C 12,6 km/h (3 Bft)
19/04/2007 10:00 17,5 C 75 % 1015,1 hPa 0,0 l/m 10,9 km/h (2 Bft) E 0,20 h 0,178 mm 295 W/m 13,0 C 17,5 C 15,6 km/h (3 Bft)
19/04/2007 11:00 17,0 C 78 % 1015,8 hPa 0,0 l/m 11,9 km/h (2 Bft) E 0,00 h 0,203 mm 221 W/m 13,3 C 17,0 C 18,6 km/h (3 Bft)
19/04/2007 12:00 16,5 C 85 % 1016,0 hPa 0,0 l/m 12,5 km/h (3 Bft) E 0,00 h 0,152 mm 154 W/m 13,9 C 16,5 C 18,6 km/h (3 Bft)
19/04/2007 13:00 17,3 C 80 % 1015,7 hPa 0,0 l/m 16,2 km/h (3 Bft) E-NE 0,02 h 0,127 mm 293 W/m 13,8 C 17,3 C 22,0 km/h (4 Bft)
19/04/2007 14:00 17,7 C 78 % 1015,8 hPa 0,0 l/m 13,8 km/h (3 Bft) E-NE 0,15 h 0,203 mm 347 W/m 13,9 C 17,7 C 19,3 km/h (3 Bft)
19/04/2007 15:00 18,5 C 75 % 1015,3 hPa 0,0 l/m 10,9 km/h (2 Bft) E 0,37 h 0,254 mm 417 W/m 14,0 C 18,5 C 16,1 km/h (3 Bft)
19/04/2007 16:00 18,0 C 78 % 1014,7 hPa 0,0 l/m 6,8 km/h (2 Bft) E 0,32 h 0,279 mm 346 W/m 14,0 C 18,0 C 11,4 km/h (2 Bft)
19/04/2007 17:00 17,8 C 77 % 1014,3 hPa 0,0 l/m 5,2 km/h (1 Bft) E 0,57 h 0,229 mm 324 W/m 13,8 C 17,8 C 9,1 km/h (2 Bft)
19/04/2007 18:00 16,8 C 79 % 1014,4 hPa 0,0 l/m 5,0 km/h (1 Bft) E 0,43 h 0,203 mm 171 W/m 13,2 C 16,8 C 7,9 km/h (2 Bft)
19/04/2007 19:00 16,0 C 82 % 1013,8 hPa 0,0 l/m 0,6 km/h (0 Bft) E-NE 0,00 h 0,102 mm 59 W/m 12,9 C 16,0 C 2,1 km/h (1 Bft)
19/04/2007 20:00 14,4 C 87 % 1013,7 hPa 0,0 l/m 0,2 km/h (0 Bft) SE 0,02 h 0,025 mm 9 W/m 12,3 C 14,4 C 1,2 km/h (1 Bft)
19/04/2007 21:00 13,7 C 89 % 1014,1 hPa 0,0 l/m 0,0 km/h (0 Bft) SE 0,00 h 0,000 mm 0 W/m 11,9 C 13,7 C 0,1 km/h (0 Bft)
19/04/2007 22:00 13,4 C 91 % 1014,5 hPa 0,0 l/m 3,2 km/h (1 Bft) SO 0,00 h 0,025 mm 0 W/m 12,0 C 13,4 C 4,1 km/h (1 Bft)
19/04/2007 23:00 13,1 C 93 % 1014,8 hPa 0,0 l/m 5,6 km/h (1 Bft) O 0,00 h 0,025 mm 0 W/m 11,9 C 13,1 C 7,0 km/h (2 Bft)
20/04/2007 00:00 13,2 C 93 % 1014,7 hPa 0,0 l/m 1,5 km/h (1 Bft) O 0,00 h 0,025 mm 0 W/m 12,1 C 13,2 C 2,4 km/h (1 Bft)
20/04/2007 01:00 13,0 C 93 % 1014,6 hPa 0,0 l/m 0,2 km/h (0 Bft) O 0,00 h 0,000 mm 0 W/m 11,9 C 13,0 C 0,5 km/h (0 Bft)
20/04/2007 02:00 13,3 C 93 % 1014,2 hPa 0,0 l/m 1,4 km/h (1 Bft) O 0,00 h 0,000 mm 0 W/m 12,3 C 13,3 C 2,2 km/h (1 Bft)
20/04/2007 03:00 13,3 C 93 % 1014,0 hPa 0,0 l/m 0,0 km/h (0 Bft) N 0,00 h 0,000 mm 0 W/m 12,1 C 13,3 C 0,1 km/h (0 Bft)
20/04/2007 04:00 13,4 C 91 % 1013,8 hPa 0,0 l/m 3,0 km/h (1 Bft) O-NO 0,00 h 0,000 mm 0 W/m 11,9 C 13,4 C 4,6 km/h (1 Bft)
20/04/2007 05:00 13,3 C 89 % 1013,3 hPa 0,0 l/m 1,4 km/h (1 Bft) O-NO 0,00 h 0,025 mm 0 W/m 11,5 C 13,3 C 2,4 km/h (1 Bft)
20/04/2007 06:00 13,5 C 86 % 1013,4 hPa 0,0 l/m 0,0 km/h (0 Bft) NO 0,03 h 0,025 mm 10 W/m 11,3 C 13,5 C 0,1 km/h (0 Bft)
20/04/2007 07:00 13,9 C 84 % 1013,9 hPa 0,0 l/m 1,7 km/h (1 Bft) NO 0,03 h 0,000 mm 55 W/m 11,3 C 13,9 C 3,0 km/h (1 Bft)
20/04/2007 08:00 15,9 C 78 % 1014,2 hPa 0,0 l/m 0,0 km/h (0 Bft) N 0,38 h 0,025 mm 165 W/m 12,0 C 15,9 C 0,2 km/h (0 Bft)
20/04/2007 09:00 18,4 C 69 % 1014,1 hPa 0,0 l/m 1,8 km/h (1 Bft) E-SE 1,00 h 0,102 mm 387 W/m 12,6 C 18,4 C 3,4 km/h (1 Bft)
20/04/2007 10:00 20,0 C 61 % 1014,4 hPa 0,0 l/m 4,7 km/h (1 Bft) E 1,00 h 0,229 mm 541 W/m 12,2 C 20,0 C 7,8 km/h (2 Bft)
20/04/2007 11:00 21,3 C 59 % 1014,6 hPa 0,0 l/m 5,0 km/h (1 Bft) E 1,00 h 0,356 mm 666 W/m 12,9 C 21,3 C 8,1 km/h (2 Bft)
20/04/2007 12:00 22,1 C 56 % 1014,6 hPa 0,0 l/m 6,8 km/h (2 Bft) E-SE 1,00 h 0,432 mm 749 W/m 12,9 C 22,1 C 10,6 km/h (2 Bft)
20/04/2007 13:00 22,4 C 53 % 1014,5 hPa 0,0 l/m 7,4 km/h (2 Bft) E-SE 1,00 h 0,508 mm 779 W/m 12,3 C 22,4 C 11,9 km/h (2 Bft)
20/04/2007 14:00 23,0 C 50 % 1014,3 hPa 0,0 l/m 8,3 km/h (2 Bft) E 1,00 h 0,533 mm 745 W/m 12,0 C 23,0 C 12,6 km/h (3 Bft)
20/04/2007 15:00 23,3 C 47 % 1013,9 hPa 0,0 l/m 7,9 km/h (2 Bft) E 1,00 h 0,508 mm 663 W/m 11,5 C 23,3 C 12,8 km/h (3 Bft)
20/04/2007 16:00 23,0 C 47 % 1013,8 hPa 0,0 l/m 7,7 km/h (2 Bft) E 1,00 h 0,483 mm 544 W/m 11,2 C 23,0 C 12,2 km/h (3 Bft)
20/04/2007 17:00 22,1 C 51 % 1013,6 hPa 0,0 l/m 5,5 km/h (1 Bft) S-SE 1,00 h 0,406 mm 388 W/m 11,5 C 22,1 C 9,0 km/h (2 Bft)
20/04/2007 18:00 20,8 C 54 % 1013,9 hPa 0,0 l/m 2,9 km/h (1 Bft) S-SE 0,93 h 0,279 mm 208 W/m 11,2 C 20,8 C 5,3 km/h (1 Bft)
20/04/2007 19:00 19,6 C 56 % 1013,5 hPa 0,0 l/m 0,4 km/h (0 Bft) SE 0,45 h 0,152 mm 72 W/m 10,6 C 19,6 C 1,3 km/h (1 Bft)
20/04/2007 20:00 17,5 C 68 % 1013,4 hPa 0,0 l/m 0,0 km/h (0 Bft) N 0,00 h 0,051 mm 6 W/m 11,4 C 17,5 C 0,0 km/h (0 Bft)
20/04/2007 21:00 16,5 C 71 % 1013,8 hPa 0,0 l/m 1,6 km/h (1 Bft) O-SO 0,00 h 0,000 mm 0 W/m 11,3 C 16,5 C 3,5 km/h (1 Bft)
20/04/2007 22:00 15,8 C 72 % 1014,1 hPa 0,0 l/m 3,3 km/h (1 Bft) NO 0,00 h 0,025 mm 0 W/m 10,8 C 15,8 C 5,4 km/h (1 Bft)
20/04/2007 23:00 16,0 C 70 % 1014,0 hPa 0,0 l/m 3,3 km/h (1 Bft) NO 0,00 h 0,025 mm 0 W/m 10,6 C 16,0 C 5,3 km/h (1 Bft)
21/04/2007 00:00 15,8 C 68 % 1014,4 hPa 0,0 l/m 3,1 km/h (1 Bft) O-NO 0,00 h 0,051 mm 0 W/m 10,0 C 15,8 C 4,5 km/h (1 Bft)
21/04/2007 01:00 15,6 C 67 % 1014,6 hPa 0,0 l/m 2,2 km/h (1 Bft) O-NO 0,00 h 0,051 mm 0 W/m 9,6 C 15,6 C 3,2 km/h (1 Bft)
21/04/2007 02:00 14,6 C 71 % 1014,6 hPa 0,0 l/m 1,0 km/h (0 Bft) O-NO 0,00 h 0,025 mm 0 W/m 9,4 C 14,6 C 1,7 km/h (1 Bft)
21/04/2007 03:00 14,1 C 72 % 1014,5 hPa 0,0 l/m 2,5 km/h (1 Bft) O-NO 0,00 h 0,025 mm 0 W/m 9,1 C 14,1 C 4,0 km/h (1 Bft)
21/04/2007 04:00 13,8 C 72 % 1014,5 hPa 0,0 l/m 1,5 km/h (1 Bft) NO 0,00 h 0,025 mm 0 W/m 8,8 C 13,8 C 2,8 km/h (1 Bft)
21/04/2007 05:00 13,4 C 74 % 1014,6 hPa 0,0 l/m 1,4 km/h (1 Bft) NO 0,00 h 0,025 mm 0 W/m 8,8 C 13,4 C 2,6 km/h (1 Bft)
21/04/2007 06:00 13,4 C 75 % 1014,8 hPa 0,0 l/m 3,4 km/h (1 Bft) O 0,05 h 0,025 mm 11 W/m 9,0 C 13,4 C 4,4 km/h (1 Bft)
21/04/2007 07:00 13,8 C 72 % 1015,3 hPa 0,0 l/m 1,8 km/h (1 Bft) O-NO 0,22 h 0,025 mm 61 W/m 8,9 C 13,8 C 3,1 km/h (1 Bft)
21/04/2007 08:00 15,8 C 68 % 1015,8 hPa 0,0 l/m 0,0 km/h (0 Bft) NO 0,40 h 0,051 mm 168 W/m 9,9 C 15,8 C 0,5 km/h (0 Bft)
21/04/2007 09:00 18,5 C 61 % 1016,1 hPa 0,0 l/m 2,5 km/h (1 Bft) S 1,00 h 0,102 mm 403 W/m 10,8 C 18,5 C 4,7 km/h (1 Bft)
21/04/2007 10:00 19,9 C 59 % 1016,3 hPa 0,0 l/m 5,0 km/h (1 Bft) E 1,00 h 0,254 mm 561 W/m 11,7 C 19,9 C 7,8 km/h (2 Bft)
21/04/2007 11:00 21,0 C 63 % 1016,5 hPa 0,0 l/m 6,7 km/h (2 Bft) E 1,00 h 0,356 mm 677 W/m 13,7 C 21,0 C 9,9 km/h (2 Bft)
21/04/2007 12:00 22,2 C 59 % 1016,4 hPa 0,0 l/m 8,9 km/h (2 Bft) E 1,00 h 0,432 mm 757 W/m 13,7 C 22,2 C 13,2 km/h (3 Bft)
21/04/2007 13:00 22,3 C 57 % 1016,2 hPa 0,0 l/m 9,9 km/h (2 Bft) E 1,00 h 0,508 mm 780 W/m 13,3 C 22,3 C 14,4 km/h (3 Bft)
21/04/2007 14:00 22,8 C 59 % 1016,0 hPa 0,0 l/m 10,9 km/h (2 Bft) E 1,00 h 0,533 mm 757 W/m 14,3 C 22,8 C 15,9 km/h (3 Bft)
21/04/2007 15:00 22,3 C 62 % 1015,9 hPa 0,0 l/m 9,4 km/h (2 Bft) E-NE 0,93 h 0,533 mm 658 W/m 14,8 C 22,3 C 13,9 km/h (3 Bft)
21/04/2007 16:00 20,2 C 72 % 1016,0 hPa 0,0 l/m 5,3 km/h (1 Bft) E 0,50 h 0,457 mm 356 W/m 14,8 C 20,2 C 7,8 km/h (2 Bft)
21/04/2007 17:00 19,6 C 74 % 1015,8 hPa 0,0 l/m 3,1 km/h (1 Bft) E-SE 0,80 h 0,229 mm 307 W/m 14,8 C 19,6 C 5,1 km/h (1 Bft)
21/04/2007 18:00 19,5 C 71 % 1015,7 hPa 0,0 l/m 0,6 km/h (0 Bft) E-SE 0,52 h 0,178 mm 177 W/m 14,2 C 19,5 C 2,2 km/h (1 Bft)
21/04/2007 19:00 18,4 C 71 % 1015,5 hPa 0,0 l/m 3,0 km/h (1 Bft) S-SO 0,00 h 0,102 mm 50 W/m 13,1 C 18,4 C 4,2 km/h (1 Bft)
21/04/2007 20:00 17,1 C 75 % 1015,7 hPa 0,0 l/m 1,5 km/h (1 Bft) SO 0,00 h 0,051 mm 7 W/m 12,6 C 17,1 C 2,8 km/h (1 Bft)
21/04/2007 21:00 16,1 C 84 % 1016,3 hPa 0,0 l/m 0,8 km/h (0 Bft) N-NO 0,00 h 0,025 mm 0 W/m 13,3 C 16,1 C 2,0 km/h (1 Bft)
21/04/2007 22:00 15,4 C 86 % 1016,5 hPa 0,0 l/m 1,7 km/h (1 Bft) E-NE 0,00 h 0,025 mm 0 W/m 13,2 C 15,4 C 2,6 km/h (1 Bft)
21/04/2007 23:00 14,9 C 89 % 1016,6 hPa 0,0 l/m 0,1 km/h (0 Bft) E-NE 0,00 h 0,025 mm 0 W/m 13,1 C 14,9 C 0,6 km/h (0 Bft)
22/04/2007 00:00 14,5 C 91 % 1017,0 hPa 0,0 l/m 0,3 km/h (0 Bft) E-NE 0,00 h 0,025 mm 0 W/m 13,0 C 14,5 C 1,0 km/h (0 Bft)
22/04/2007 01:00 14,5 C 92 % 1017,1 hPa 0,0 l/m 0,4 km/h (0 Bft) E-NE 0,00 h 0,000 mm 0 W/m 13,2 C 14,5 C 1,2 km/h (1 Bft)
22/04/2007 02:00 14,0 C 93 % 1017,0 hPa 0,0 l/m 0,4 km/h (0 Bft) E-NE 0,00 h 0,000 mm 0 W/m 12,9 C 14,0 C 0,6 km/h (0 Bft)
22/04/2007 03:00 13,3 C 93 % 1017,0 hPa 0,0 l/m 0,7 km/h (0 Bft) N-NO 0,00 h 0,000 mm 0 W/m 12,2 C 13,3 C 1,1 km/h (1 Bft)
22/04/2007 04:00 12,8 C 93 % 1017,3 hPa 0,0 l/m 1,2 km/h (1 Bft) O-SO 0,00 h 0,000 mm 0 W/m 11,7 C 12,8 C 1,6 km/h (1 Bft)
22/04/2007 05:00 13,5 C 93 % 1017,6 hPa 0,0 l/m 0,9 km/h (0 Bft) E 0,00 h 0,000 mm 0 W/m 12,3 C 13,5 C 2,3 km/h (1 Bft)
22/04/2007 06:00 14,0 C 94 % 1017,9 hPa 0,0 l/m 0,5 km/h (0 Bft) E-NE 0,02 h 0,000 mm 10 W/m 12,9 C 14,0 C 1,4 km/h (1 Bft)
22/04/2007 07:00 13,4 C 94 % 1018,5 hPa 0,0 l/m 3,1 km/h (1 Bft) O-NO 0,28 h 0,000 mm 62 W/m 12,5 C 13,4 C 5,5 km/h (1 Bft)
22/04/2007 08:00 14,5 C 88 % 1018,9 hPa 0,0 l/m 0,6 km/h (0 Bft) E-SE 0,40 h 0,025 mm 172 W/m 12,5 C 14,5 C 1,9 km/h (1 Bft)
22/04/2007 09:00 17,3 C 73 % 1019,1 hPa 0,0 l/m 0,8 km/h (0 Bft) S-SE 1,00 h 0,102 mm 408 W/m 12,4 C 17,3 C 2,4 km/h (1 Bft)
22/04/2007 10:00 20,1 C 63 % 1019,5 hPa 0,0 l/m 3,1 km/h (1 Bft) E-SE 1,00 h 0,229 mm 565 W/m 12,8 C 20,1 C 5,8 km/h (2 Bft)
22/04/2007 11:00 20,8 C 67 % 1019,9 hPa 0,0 l/m 6,2 km/h (2 Bft) E 1,00 h 0,356 mm 688 W/m 14,5 C 20,8 C 9,7 km/h (2 Bft)
22/04/2007 12:00 21,3 C 66 % 1020,1 hPa 0,0 l/m 7,2 km/h (2 Bft) E-SE 1,00 h 0,432 mm 771 W/m 14,8 C 21,3 C 11,1 km/h (2 Bft)
22/04/2007 13:00 22,4 C 59 % 1019,9 hPa 0,0 l/m 6,1 km/h (2 Bft) E 1,00 h 0,483 mm 816 W/m 13,9 C 22,4 C 9,9 km/h (2 Bft)
22/04/2007 14:00 23,3 C 48 % 1019,9 hPa 0,0 l/m 7,1 km/h (2 Bft) E-NE 1,00 h 0,533 mm 840 W/m 11,7 C 23,3 C 11,1 km/h (2 Bft)
22/04/2007 15:00 23,0 C 49 % 1019,8 hPa 0,0 l/m 5,3 km/h (1 Bft) E 0,67 h 0,559 mm 516 W/m 11,6 C 23,0 C 8,6 km/h (2 Bft)
22/04/2007 16:00 21,3 C 51 % 1019,6 hPa 0,0 l/m 2,3 km/h (1 Bft) E-SE 0,23 h 0,356 mm 287 W/m 10,7 C 21,3 C 5,2 km/h (1 Bft)
22/04/2007 17:00 22,1 C 48 % 1019,4 hPa 0,0 l/m 1,4 km/h (1 Bft) E 0,52 h 0,203 mm 281 W/m 10,4 C 22,1 C 3,3 km/h (1 Bft)
22/04/2007 18:00 20,9 C 52 % 1019,6 hPa 0,0 l/m 1,0 km/h (0 Bft) SE 0,07 h 0,178 mm 100 W/m 10,7 C 20,9 C 2,1 km/h (1 Bft)
22/04/2007 19:00 19,1 C 64 % 1019,3 hPa 0,0 l/m 2,0 km/h (1 Bft) E 0,00 h 0,076 mm 24 W/m 12,1 C 19,1 C 3,4 km/h (1 Bft)
22/04/2007 20:00 18,4 C 65 % 1019,8 hPa 0,0 l/m 2,8 km/h (1 Bft) O 0,00 h 0,025 mm 5 W/m 11,7 C 18,4 C 4,4 km/h (1 Bft)
22/04/2007 21:00 18,1 C 67 % 1020,3 hPa 0,0 l/m 0,7 km/h (0 Bft) NE 0,00 h 0,025 mm 0 W/m 11,8 C 18,1 C 1,4 km/h (1 Bft)
22/04/2007 22:00 17,2 C 69 % 1020,5 hPa 0,0 l/m 1,4 km/h (1 Bft) E 0,00 h 0,025 mm 0 W/m 11,5 C 17,2 C 3,1 km/h (1 Bft)
22/04/2007 23:00 16,1 C 78 % 1020,9 hPa 0,0 l/m 1,0 km/h (0 Bft) S-SE 0,00 h 0,025 mm 0 W/m 12,2 C 16,1 C 1,6 km/h (1 Bft)
Min-Date _ 22/04/07 16/04/07 20/04/07 - 16/04/07 - - - - 16/04/07 22/04/07 16/04/07
_ Min-Heure 05:12 12:40 05:30 - 03:58 - - - - 12:42 05:12 04:01
Minimum _ 12,3 C 21 % 1013,2 hPa - 0,0 km/h (0 Bft) - - - - 1,4 C 12,3 C 0,0 km/h (0 Bft)
Max-Date _ 16/04/07 18/04/07 22/04/07 16/04/07 19/04/07 - 16/04/07 16/04/07 16/04/07 21/04/07 16/04/07 19/04/07
_ Max-Heure 13:13 21:56 23:00 00:00 13:24 - 06:58 14:00 13:49 15:04 13:13 13:24
Maximum _ 26,3 C 94 % 1020,9 hPa 0,0 l/m 24,1 km/h
E-NE (4 Bft)
- 0,02 h 0,610 mm 962 W/m 16,2 C 26,3 C 32,2 km/h
E-NE (5 Bft)
Moyenne _ 17,8 C 63 % 1015,6 hPa #0,0 l/m 3,9 km/h (1 Bft) E #63:55 h #28,848 mm 369 W/m 9,9 C 17,8 C 6,3 km/h (2 Bft)
Roquefort les pins